Time;durP1;ratioP1;P1;durP2;ratioP2;P2;SDS_P1;SDS_P2;PMS_P1;PMS_P2;Temp;Humidity;BMP_temperature;BMP_pressure;BME280_temperature;BME280_humidity;BME280_pressure;Samples;Min_cycle;Max_cycle;Signal;HPM_P1;HPM_P2
2020/12/22 00:01:28;;;;;;;;;;;22.50;96.30;;;;;;5113502;28;19923;-83
2020/12/22 00:03:54;;;;;;;;;;;22.70;96.20;;;;;;5119793;27;19920;-82
2020/12/22 00:06:27;;;;;;;;;;;22.80;96.00;;;;;;5153866;27;20277;-82
2020/12/22 00:08:54;;;;;;;;;;;22.90;95.80;;;;;;5133683;27;19918;-85
2020/12/22 00:11:21;;;;;;;;;;;23.00;94.50;;;;;;5133954;27;19920;-86
2020/12/22 00:13:47;;;;;;;;;;;22.90;93.60;;;;;;5134795;27;19916;-84
2020/12/22 00:16:18;;;;;;;;;;;22.80;94.10;;;;;;5135225;27;19915;-81
2020/12/22 00:18:45;;;;;;;;;;;22.90;94.10;;;;;;5133630;27;20072;-85
2020/12/22 00:21:11;;;;;;;;;;;23.00;94.00;;;;;;5137302;27;20354;-85
2020/12/22 00:23:42;;;;;;;;;;;23.20;93.00;;;;;;5133969;27;19915;-83
2020/12/22 00:26:09;;;;;;;;;;;23.30;92.60;;;;;;5117106;27;20407;-79
2020/12/22 00:28:38;;;;;;;;;;;23.30;92.00;;;;;;5133584;27;19937;-81
2020/12/22 00:31:05;;;;;;;;;;;23.20;91.90;;;;;;5133780;27;20234;-80
2020/12/22 00:33:32;;;;;;;;;;;23.30;92.10;;;;;;5133651;27;20396;-84
2020/12/22 00:35:58;;;;;;;;;;;23.50;92.90;;;;;;5133930;27;19920;-84
2020/12/22 00:38:25;;;;;;;;;;;23.80;91.20;;;;;;5133439;27;19922;-81
2020/12/22 00:40:52;;;;;;;;;;;24.10;90.60;;;;;;5134088;27;19954;-82
2020/12/22 00:43:18;;;;;;;;;;;24.10;90.90;;;;;;5134918;27;19911;-78
2020/12/22 00:45:46;;;;;;;;;;;24.10;90.20;;;;;;5134145;27;20265;-91
2020/12/22 00:48:12;;;;;;;;;;;24.00;90.00;;;;;;5135700;27;20352;-88
2020/12/22 00:50:39;;;;;;;;;;;24.00;90.50;;;;;;5134029;27;19911;-83
2020/12/22 00:53:06;;;;;;;;;;;24.10;90.50;;;;;;5134853;27;20013;-88
2020/12/22 00:55:32;;;;;;;;;;;24.10;89.40;;;;;;5134624;27;20032;-83
2020/12/22 00:57:59;;;;;;;;;;;24.20;90.00;;;;;;5150631;27;19918;-81
2020/12/22 01:00:25;;;;;;;;;;;24.60;90.00;;;;;;5142301;27;19907;-83
2020/12/22 01:02:52;;;;;;;;;;;24.80;87.00;;;;;;5118200;27;19919;-84
2020/12/22 01:05:19;;;;;;;;;;;24.80;84.80;;;;;;5135453;27;20511;-85
2020/12/22 01:07:49;;;;;;;;;;;24.70;85.40;;;;;;5134489;27;19922;-76
2020/12/22 01:10:16;;;;;;;;;;;24.70;86.80;;;;;;5134405;27;20376;-85
2020/12/22 01:12:45;;;;;;;;;;;24.70;87.30;;;;;;5119659;27;19911;-80
2020/12/22 01:15:17;;;;;;;;;;;24.60;86.40;;;;;;5115556;28;20003;-85
2020/12/22 01:17:43;;;;;;;;;;;24.60;84.80;;;;;;5115338;28;20392;-85
2020/12/22 01:20:10;;;;;;;;;;;24.60;88.10;;;;;;5097671;28;19927;-84
2020/12/22 01:22:37;;;;;;;;;;;24.60;84.20;;;;;;5097364;28;19923;-82
2020/12/22 01:25:03;;;;;;;;;;;24.70;85.60;;;;;;5094650;28;20644;-79
2020/12/22 01:27:30;;;;;;;;;;;24.90;85.00;;;;;;5114110;28;20390;-79
2020/12/22 01:29:57;;;;;;;;;;;25.00;85.40;;;;;;5113485;28;20002;-81
2020/12/22 01:32:23;;;;;;;;;;;25.20;85.50;;;;;;5112239;28;20059;-84
2020/12/22 01:34:51;;;;;;;;;;;25.60;84.40;;;;;;5113571;28;19934;-82
2020/12/22 01:37:18;;;;;;;;;;;25.60;83.00;;;;;;5118139;27;19938;-76
2020/12/22 01:39:44;;;;;;;;;;;25.40;81.40;;;;;;5117209;27;20658;-84
2020/12/22 01:42:11;;;;;;;;;;;25.20;82.00;;;;;;5115903;28;19934;-82
2020/12/22 01:44:41;;;;;;;;;;;25.10;84.40;;;;;;5116301;28;19919;-80
2020/12/22 01:47:08;;;;;;;;;;;24.90;83.50;;;;;;5129122;28;20008;-79
2020/12/22 01:49:36;;;;;;;;;;;24.80;83.80;;;;;;5128406;28;20274;-82
2020/12/22 01:52:03;;;;;;;;;;;24.70;84.80;;;;;;5116571;28;19907;-85
2020/12/22 01:54:31;;;;;;;;;;;24.60;85.00;;;;;;5116788;28;20093;-80
2020/12/22 01:56:58;;;;;;;;;;;24.60;83.90;;;;;;5109292;28;19968;-85
2020/12/22 01:59:25;;;;;;;;;;;24.50;85.10;;;;;;5132569;27;19963;-81
2020/12/22 02:01:53;;;;;;;;;;;24.50;85.20;;;;;;5110824;28;19920;-77
2020/12/22 02:04:20;;;;;;;;;;;24.50;85.00;;;;;;5123194;27;19977;-84
2020/12/22 02:06:47;;;;;;;;;;;24.60;82.70;;;;;;5137246;27;20380;-77
2020/12/22 02:09:14;;;;;;;;;;;24.70;83.20;;;;;;5136259;27;19912;-81
2020/12/22 02:11:41;;;;;;;;;;;24.80;83.00;;;;;;5137387;27;20384;-79
2020/12/22 02:14:09;;;;;;;;;;;24.90;82.70;;;;;;5137349;27;19922;-81
2020/12/22 02:16:36;;;;;;;;;;;24.90;83.20;;;;;;5119102;27;19923;-86
2020/12/22 02:19:03;;;;;;;;;;;24.90;79.80;;;;;;5137121;27;19911;-86
2020/12/22 02:21:30;;;;;;;;;;;24.80;80.80;;;;;;5135397;27;20023;-81
2020/12/22 02:23:56;;;;;;;;;;;24.90;81.60;;;;;;5137185;27;19921;-79
2020/12/22 02:26:24;;;;;;;;;;;24.90;77.10;;;;;;5147334;27;19956;-75
2020/12/22 02:28:55;;;;;;;;;;;24.90;77.00;;;;;;5150303;27;19912;-78
2020/12/22 02:31:25;;;;;;;;;;;24.90;75.90;;;;;;5158089;27;19907;-78
2020/12/22 02:33:52;;;;;;;;;;;24.90;76.60;;;;;;5117793;27;19912;-78
2020/12/22 02:36:19;;;;;;;;;;;24.90;75.60;;;;;;5135713;27;20009;-80
2020/12/22 02:38:46;;;;;;;;;;;24.90;75.70;;;;;;5135997;27;19911;-81
2020/12/22 02:41:12;;;;;;;;;;;24.90;75.80;;;;;;5136567;27;19908;-84
2020/12/22 02:43:39;;;;;;;;;;;25.00;76.80;;;;;;5127589;27;19908;-76
2020/12/22 02:46:06;;;;;;;;;;;25.10;75.60;;;;;;5149805;27;19960;-84
2020/12/22 02:48:33;;;;;;;;;;;25.10;73.30;;;;;;5132263;27;19971;-82
2020/12/22 02:51:00;;;;;;;;;;;25.10;77.30;;;;;;5135557;27;19919;-84
2020/12/22 02:53:26;;;;;;;;;;;25.20;71.70;;;;;;5136038;27;19911;-83
2020/12/22 02:55:53;;;;;;;;;;;25.30;73.10;;;;;;5134794;27;20395;-81
2020/12/22 02:58:20;;;;;;;;;;;25.50;66.90;;;;;;5135341;27;19953;-81
2020/12/22 03:00:47;;;;;;;;;;;25.60;67.50;;;;;;5136366;27;19915;-82
2020/12/22 03:03:14;;;;;;;;;;;25.70;64.50;;;;;;5135185;27;19911;-82
2020/12/22 03:05:40;;;;;;;;;;;25.70;62.80;;;;;;5133915;27;20305;-83
2020/12/22 03:08:10;;;;;;;;;;;25.80;60.60;;;;;;5117997;27;19916;-79
2020/12/22 03:10:37;;;;;;;;;;;25.80;60.70;;;;;;5122283;27;19957;-82
2020/12/22 03:13:03;;;;;;;;;;;25.90;60.10;;;;;;5146131;27;19927;-77
2020/12/22 03:15:30;;;;;;;;;;;26.00;60.00;;;;;;5132720;27;20223;-78
2020/12/22 03:17:57;;;;;;;;;;;26.10;58.00;;;;;;5116403;27;19941;-82
2020/12/22 03:20:27;;;;;;;;;;;26.20;59.80;;;;;;5117546;27;19927;-83
2020/12/22 03:22:54;;;;;;;;;;;26.20;57.50;;;;;;5123100;27;19954;-82
2020/12/22 03:25:20;;;;;;;;;;;26.10;57.50;;;;;;5116560;27;19981;-81
2020/12/22 03:27:47;;;;;;;;;;;25.90;58.10;;;;;;5136062;27;20052;-78
2020/12/22 03:30:14;;;;;;;;;;;25.80;61.40;;;;;;5128290;27;19919;-82
2020/12/22 03:32:41;;;;;;;;;;;25.80;57.80;;;;;;5115490;27;19919;-86
2020/12/22 03:35:08;;;;;;;;;;;25.70;59.80;;;;;;5115409;27;20340;-88
2020/12/22 03:37:36;;;;;;;;;;;25.70;57.20;;;;;;5115285;28;19923;-84
2020/12/22 03:40:05;;;;;;;;;;;25.80;58.20;;;;;;5123438;27;20293;-83
2020/12/22 03:42:32;;;;;;;;;;;25.80;59.10;;;;;;5116448;27;19911;-85
2020/12/22 03:44:58;;;;;;;;;;;25.80;57.90;;;;;;5113953;28;19908;-78
2020/12/22 03:47:25;;;;;;;;;;;25.80;58.00;;;;;;5127490;27;19916;-80
2020/12/22 03:49:52;;;;;;;;;;;25.80;58.00;;;;;;5137748;27;19935;-77
2020/12/22 03:52:18;;;;;;;;;;;25.70;58.00;;;;;;5126948;27;19912;-80
2020/12/22 03:54:45;;;;;;;;;;;25.80;57.80;;;;;;5134756;27;19916;-77
2020/12/22 03:57:14;;;;;;;;;;;25.70;55.00;;;;;;5138392;27;19911;-77
2020/12/22 03:59:40;;;;;;;;;;;25.60;55.80;;;;;;5131523;27;19911;-79
2020/12/22 04:02:07;;;;;;;;;;;25.80;56.40;;;;;;5124986;27;19915;-80
2020/12/22 04:04:34;;;;;;;;;;;25.80;55.50;;;;;;5135497;27;19919;-83
2020/12/22 04:07:01;;;;;;;;;;;25.70;56.40;;;;;;5126597;27;20002;-82
2020/12/22 04:09:27;;;;;;;;;;;25.70;56.10;;;;;;5129946;27;20312;-83
2020/12/22 04:11:54;;;;;;;;;;;25.70;58.10;;;;;;5127650;27;20025;-81
2020/12/22 04:14:21;;;;;;;;;;;25.90;55.30;;;;;;5115158;27;19911;-81
2020/12/22 04:16:48;;;;;;;;;;;26.00;55.00;;;;;;5115187;27;19975;-78
2020/12/22 04:19:15;;;;;;;;;;;26.00;53.90;;;;;;5135101;27;19941;-78
2020/12/22 04:21:42;;;;;;;;;;;25.90;57.20;;;;;;5122970;27;20007;-77
2020/12/22 04:24:09;;;;;;;;;;;25.90;55.80;;;;;;5137904;27;19924;-76
2020/12/22 04:26:35;;;;;;;;;;;25.90;57.40;;;;;;5140562;27;19916;-77
2020/12/22 04:29:03;;;;;;;;;;;26.00;56.60;;;;;;5125505;27;19990;-79
2020/12/22 04:31:29;;;;;;;;;;;25.80;55.40;;;;;;5118059;27;20380;-79
2020/12/22 04:33:56;;;;;;;;;;;25.80;54.50;;;;;;5121826;27;20027;-79
2020/12/22 04:36:23;;;;;;;;;;;25.90;54.50;;;;;;5116794;27;19920;-81
2020/12/22 04:38:50;;;;;;;;;;;25.90;54.00;;;;;;5122159;27;19911;-84
2020/12/22 04:41:18;;;;;;;;;;;25.90;52.40;;;;;;5125823;27;19927;-83
2020/12/22 04:43:45;;;;;;;;;;;26.00;52.70;;;;;;5106047;27;19912;-83
2020/12/22 04:46:16;;;;;;;;;;;26.00;52.40;;;;;;5118384;27;20006;-83
2020/12/22 04:48:44;;;;;;;;;;;26.00;54.70;;;;;;5116021;27;20322;-79
2020/12/22 04:51:11;;;;;;;;;;;26.10;52.80;;;;;;5126062;27;19912;-84
2020/12/22 04:53:38;;;;;;;;;;;26.00;51.70;;;;;;5118763;27;19922;-81
2020/12/22 04:56:06;;;;;;;;;;;26.00;52.00;;;;;;5122758;27;19926;-82
2020/12/22 04:58:35;;;;;;;;;;;26.10;50.20;;;;;;5124885;27;20042;-80
2020/12/22 05:01:02;;;;;;;;;;;26.20;50.60;;;;;;5108426;28;19918;-81
2020/12/22 05:03:29;;;;;;;;;;;26.10;50.70;;;;;;5109296;28;19911;-81
2020/12/22 05:05:55;;;;;;;;;;;26.10;52.50;;;;;;5124128;27;19926;-83
2020/12/22 05:08:22;;;;;;;;;;;26.10;51.60;;;;;;5111551;28;20704;-83
2020/12/22 05:10:50;;;;;;;;;;;26.10;53.50;;;;;;5111863;28;19912;-83
2020/12/22 05:13:17;;;;;;;;;;;26.20;51.80;;;;;;5112348;28;20003;-82
2020/12/22 05:15:48;;;;;;;;;;;26.40;49.40;;;;;;5113567;28;19912;-81
2020/12/22 05:18:15;;;;;;;;;;;26.40;50.50;;;;;;5095221;28;20281;-83
2020/12/22 05:20:46;;;;;;;;;;;26.30;51.20;;;;;;5136790;27;19924;-83
2020/12/22 05:23:16;;;;;;;;;;;26.20;51.50;;;;;;5102043;28;19958;-83
2020/12/22 05:25:47;;;;;;;;;;;26.10;50.90;;;;;;5113035;28;19911;-84
2020/12/22 05:28:14;;;;;;;;;;;26.00;51.70;;;;;;5112701;28;19912;-82
2020/12/22 05:30:41;;;;;;;;;;;26.00;51.50;;;;;;5113291;28;19927;-81
2020/12/22 05:33:08;;;;;;;;;;;26.10;51.90;;;;;;5112798;28;19912;-84
2020/12/22 05:35:39;;;;;;;;;;;26.20;52.50;;;;;;5113370;28;19973;-83
2020/12/22 05:38:06;;;;;;;;;;;26.30;52.10;;;;;;5110070;28;19912;-82
2020/12/22 05:40:39;;;;;;;;;;;26.10;52.90;;;;;;5112360;28;19912;-82
2020/12/22 05:43:06;;;;;;;;;;;26.20;53.50;;;;;;5113280;28;19912;-83
2020/12/22 05:45:36;;;;;;;;;;;26.30;51.60;;;;;;5113818;28;19961;-80
2020/12/22 05:48:04;;;;;;;;;;;26.10;53.10;;;;;;5113427;28;19911;-82
2020/12/22 05:50:32;;;;;;;;;;;26.10;51.40;;;;;;5111090;28;19920;-81
2020/12/22 05:52:59;;;;;;;;;;;26.00;51.30;;;;;;5111345;28;20263;-84
2020/12/22 05:55:27;;;;;;;;;;;26.20;48.90;;;;;;5111235;28;19911;-83
2020/12/22 05:58:07;;;;;;;;;;;26.30;47.90;;;;;;5111372;28;20363;-84
2020/12/22 06:00:34;;;;;;;;;;;26.20;47.70;;;;;;5110709;28;19908;-82
2020/12/22 06:03:04;;;;;;;;;;;26.20;48.50;;;;;;5113747;28;19959;-82
2020/12/22 06:05:33;;;;;;;;;;;26.10;47.30;;;;;;5125355;28;20280;-84
2020/12/22 06:08:00;;;;;;;;;;;26.30;46.70;;;;;;5109698;28;20010;-79
2020/12/22 06:10:27;;;;;;;;;;;26.20;47.80;;;;;;5110102;28;19912;-79
2020/12/22 06:12:57;;;;;;;;;;;26.20;49.50;;;;;;5119844;28;19955;-78
2020/12/22 06:15:24;;;;;;;;;;;26.00;47.40;;;;;;5079899;28;20285;-80
2020/12/22 06:17:50;;;;;;;;;;;25.90;48.80;;;;;;5087459;28;20007;-79
2020/12/22 06:20:21;;;;;;;;;;;26.00;47.20;;;;;;5110295;28;20069;-79
2020/12/22 06:22:48;;;;;;;;;;;26.00;48.70;;;;;;5114763;28;19938;-79
2020/12/22 06:25:23;;;;;;;;;;;26.10;46.60;;;;;;5095780;28;20660;-83
2020/12/22 06:27:50;;;;;;;;;;;26.00;47.50;;;;;;5114570;28;19916;-84
2020/12/22 06:30:17;;;;;;;;;;;26.00;46.00;;;;;;5096188;28;19938;-85
2020/12/22 06:32:45;;;;;;;;;;;25.90;47.20;;;;;;5128425;27;19919;-83
2020/12/22 06:35:31;;;;;;;;;;;26.00;45.20;;;;;;5117949;27;20370;-83
2020/12/22 06:37:59;;;;;;;;;;;25.90;45.10;;;;;;5121030;27;20266;-78
2020/12/22 06:40:48;;;;;;;;;;;25.80;46.60;;;;;;5117203;27;19916;-80
2020/12/22 06:43:34;;;;;;;;;;;25.80;47.00;;;;;;5123408;27;19998;-85
2020/12/22 06:46:01;;;;;;;;;;;25.60;46.70;;;;;;5119104;27;20263;-84
2020/12/22 06:48:28;;;;;;;;;;;25.60;47.10;;;;;;5119069;27;19916;-84
2020/12/22 06:50:56;;;;;;;;;;;25.50;45.90;;;;;;5131267;27;19914;-84
2020/12/22 06:53:41;;;;;;;;;;;25.50;45.10;;;;;;5101160;28;20365;-84
2020/12/22 06:56:07;;;;;;;;;;;25.50;45.90;;;;;;5109204;28;20022;-84
2020/12/22 06:58:47;;;;;;;;;;;25.50;45.60;;;;;;5113675;28;19911;-78
2020/12/22 07:01:30;;;;;;;;;;;25.40;48.20;;;;;;5107352;28;19926;-83
2020/12/22 07:04:13;;;;;;;;;;;25.30;44.00;;;;;;5115103;27;19923;-78
2020/12/22 07:06:43;;;;;;;;;;;25.30;46.50;;;;;;5113071;28;19958;-79
2020/12/22 07:09:23;;;;;;;;;;;25.40;42.80;;;;;;5112624;28;19907;-77
2020/12/22 07:11:51;;;;;;;;;;;25.40;42.50;;;;;;5107567;28;19918;-84
2020/12/22 07:14:19;;;;;;;;;;;25.40;44.40;;;;;;5113681;28;19916;-80
2020/12/22 07:16:47;;;;;;;;;;;25.30;43.60;;;;;;5112577;28;19969;-77
2020/12/22 07:19:17;;;;;;;;;;;25.30;44.30;;;;;;5112858;28;20315;-82
2020/12/22 07:21:44;;;;;;;;;;;25.20;43.60;;;;;;5112765;28;20693;-79
2020/12/22 07:24:12;;;;;;;;;;;25.20;43.80;;;;;;5111737;28;19912;-84
2020/12/22 07:26:38;;;;;;;;;;;25.20;44.70;;;;;;5106117;28;19915;-80
2020/12/22 07:29:08;;;;;;;;;;;25.20;46.00;;;;;;5098293;27;20280;-81
2020/12/22 07:31:35;;;;;;;;;;;25.20;44.30;;;;;;5111794;28;19998;-79
2020/12/22 07:34:05;;;;;;;;;;;25.10;44.00;;;;;;5106195;28;19912;-80
2020/12/22 07:36:32;;;;;;;;;;;25.10;44.10;;;;;;5111502;28;19916;-78
2020/12/22 07:39:17;;;;;;;;;;;25.10;44.10;;;;;;5110713;28;19914;-80
2020/12/22 07:41:45;;;;;;;;;;;25.00;43.60;;;;;;5114440;27;19908;-80
2020/12/22 07:44:18;;;;;;;;;;;25.10;39.90;;;;;;5093869;28;19919;-79
2020/12/22 07:46:45;;;;;;;;;;;25.00;41.00;;;;;;5112797;28;19923;-79
2020/12/22 07:49:13;;;;;;;;;;;24.90;42.30;;;;;;5112433;28;19912;-78
2020/12/22 07:51:44;;;;;;;;;;;24.90;39.50;;;;;;5112917;28;20374;-79
2020/12/22 07:54:11;;;;;;;;;;;24.90;41.00;;;;;;5111365;27;19991;-80
2020/12/22 07:56:40;;;;;;;;;;;24.80;40.20;;;;;;5093311;28;19938;-80
2020/12/22 07:59:10;;;;;;;;;;;24.70;39.40;;;;;;5092159;28;19912;-83
2020/12/22 08:01:38;;;;;;;;;;;24.60;41.00;;;;;;5112956;28;19968;-82
2020/12/22 08:04:14;;;;;;;;;;;24.60;38.60;;;;;;5089571;27;19912;-80
2020/12/22 08:06:41;;;;;;;;;;;24.60;39.60;;;;;;5134231;27;19947;-79
2020/12/22 08:09:08;;;;;;;;;;;24.60;39.90;;;;;;5134855;27;19943;-82
2020/12/22 08:11:35;;;;;;;;;;;24.60;39.60;;;;;;5128512;27;19912;-80
2020/12/22 08:14:05;;;;;;;;;;;24.60;39.80;;;;;;5133741;27;19911;-81
2020/12/22 08:16:33;;;;;;;;;;;24.60;39.20;;;;;;5135069;27;19926;-81
2020/12/22 08:19:01;;;;;;;;;;;24.60;39.80;;;;;;5136836;27;19999;-77
2020/12/22 08:21:28;;;;;;;;;;;24.50;41.60;;;;;;5139641;27;19916;-81
2020/12/22 08:23:55;;;;;;;;;;;24.40;42.70;;;;;;5139651;27;19912;-80
2020/12/22 08:26:22;;;;;;;;;;;24.40;41.60;;;;;;5134054;27;19919;-83
2020/12/22 08:28:52;;;;;;;;;;;24.40;42.10;;;;;;5134674;27;19919;-82
2020/12/22 08:31:23;;;;;;;;;;;24.40;41.90;;;;;;5133215;27;20274;-82
2020/12/22 08:33:52;;;;;;;;;;;24.40;43.10;;;;;;5134322;27;19969;-80
2020/12/22 08:36:20;;;;;;;;;;;24.30;45.00;;;;;;5137499;27;19972;-79
2020/12/22 08:38:47;;;;;;;;;;;24.30;42.90;;;;;;5134746;27;19911;-80
2020/12/22 08:41:15;;;;;;;;;;;24.30;40.60;;;;;;5132452;27;19977;-79
2020/12/22 08:43:51;;;;;;;;;;;24.40;41.60;;;;;;5134040;27;20354;-80
2020/12/22 08:46:18;;;;;;;;;;;24.20;41.50;;;;;;5127861;27;19959;-82
2020/12/22 08:48:46;;;;;;;;;;;24.10;43.00;;;;;;5134207;27;19912;-81
2020/12/22 08:51:24;;;;;;;;;;;24.10;42.90;;;;;;5134937;27;19915;-80
2020/12/22 08:53:53;;;;;;;;;;;24.10;41.70;;;;;;5115304;27;19923;-81
2020/12/22 08:56:23;;;;;;;;;;;24.10;44.30;;;;;;5115406;27;19920;-81
2020/12/22 08:59:00;;;;;;;;;;;24.00;43.70;;;;;;5134801;27;19907;-81
2020/12/22 09:01:28;;;;;;;;;;;24.00;44.00;;;;;;5133553;27;19908;-83
2020/12/22 09:03:58;;;;;;;;;;;23.80;44.70;;;;;;5133492;27;19998;-80
2020/12/22 09:06:32;;;;;;;;;;;23.80;44.00;;;;;;5113745;28;19961;-82
2020/12/22 09:09:00;;;;;;;;;;;23.80;43.80;;;;;;5113220;28;19908;-79
2020/12/22 09:11:27;;;;;;;;;;;23.80;43.30;;;;;;5112801;28;20373;-79
2020/12/22 09:14:00;;;;;;;;;;;23.70;44.70;;;;;;5113894;28;19941;-81
2020/12/22 09:16:42;;;;;;;;;;;23.70;44.00;;;;;;5116217;28;20494;-80
2020/12/22 09:19:09;;;;;;;;;;;23.70;44.10;;;;;;5113749;28;19915;-84
2020/12/22 09:21:36;;;;;;;;;;;23.80;43.90;;;;;;5113290;28;20288;-86
2020/12/22 09:24:02;;;;;;;;;;;23.60;45.70;;;;;;5113485;28;20457;-83
2020/12/22 09:26:29;;;;;;;;;;;23.60;45.70;;;;;;5112877;28;19931;-86
2020/12/22 09:28:56;;;;;;;;;;;23.60;46.20;;;;;;5113324;28;19908;-81
2020/12/22 09:31:26;;;;;;;;;;;23.60;45.40;;;;;;5111418;28;19911;-79
2020/12/22 09:33:53;;;;;;;;;;;23.60;44.80;;;;;;5112786;28;20278;-79
2020/12/22 09:36:19;;;;;;;;;;;23.50;46.80;;;;;;5112389;28;19920;-79
2020/12/22 09:38:46;;;;;;;;;;;23.50;47.80;;;;;;5111222;28;19958;-81
2020/12/22 09:41:13;;;;;;;;;;;23.50;44.70;;;;;;5101638;28;20387;-80
2020/12/22 09:43:39;;;;;;;;;;;23.40;44.50;;;;;;5095702;28;20282;-80
2020/12/22 09:46:06;;;;;;;;;;;23.50;45.80;;;;;;5119437;28;20370;-80
2020/12/22 09:48:33;;;;;;;;;;;23.40;46.70;;;;;;5116890;28;19935;-80
2020/12/22 09:50:59;;;;;;;;;;;23.40;47.30;;;;;;5112802;28;20294;-79
2020/12/22 09:53:26;;;;;;;;;;;23.30;46.90;;;;;;5112415;28;19907;-79
2020/12/22 09:55:53;;;;;;;;;;;23.30;44.80;;;;;;5111180;28;19916;-79
2020/12/22 09:58:19;;;;;;;;;;;23.30;45.80;;;;;;5117173;28;19907;-80
2020/12/22 10:00:46;;;;;;;;;;;23.30;45.50;;;;;;5116878;28;20347;-80
2020/12/22 10:03:13;;;;;;;;;;;23.20;46.20;;;;;;5116055;28;19994;-81
2020/12/22 10:05:39;;;;;;;;;;;23.20;46.20;;;;;;5133143;27;19999;-81
2020/12/22 10:08:06;;;;;;;;;;;23.20;45.30;;;;;;5137870;27;19998;-80
2020/12/22 10:10:33;;;;;;;;;;;23.10;46.50;;;;;;5138087;27;20322;-82
2020/12/22 10:12:59;;;;;;;;;;;23.10;46.00;;;;;;5138177;27;19976;-81
2020/12/22 10:15:26;;;;;;;;;;;23.10;47.50;;;;;;5133428;27;19934;-80
2020/12/22 10:17:53;;;;;;;;;;;23.10;46.00;;;;;;5123745;27;20380;-80
2020/12/22 10:20:19;;;;;;;;;;;23.00;46.50;;;;;;5089526;28;19908;-81
2020/12/22 10:22:46;;;;;;;;;;;23.00;43.90;;;;;;5109132;28;19942;-80
2020/12/22 10:25:13;;;;;;;;;;;22.90;45.00;;;;;;5114924;28;20010;-81
2020/12/22 10:27:39;;;;;;;;;;;22.90;44.50;;;;;;5116721;28;19908;-80
2020/12/22 10:30:06;;;;;;;;;;;22.80;43.10;;;;;;5104876;28;19912;-82
2020/12/22 10:32:33;;;;;;;;;;;22.80;44.30;;;;;;5128489;27;19907;-81
2020/12/22 10:35:01;;;;;;;;;;;22.80;43.10;;;;;;5129357;27;19919;-82
2020/12/22 10:37:28;;;;;;;;;;;22.80;44.20;;;;;;5115026;28;19924;-81
2020/12/22 10:39:54;;;;;;;;;;;22.80;43.60;;;;;;5115852;27;19919;-82
2020/12/22 10:42:24;;;;;;;;;;;22.70;44.60;;;;;;5114728;28;19911;-82
2020/12/22 10:44:51;;;;;;;;;;;22.70;44.40;;;;;;5096034;28;19912;-80
2020/12/22 10:47:18;;;;;;;;;;;22.60;46.70;;;;;;5112235;28;19919;-80
2020/12/22 10:49:45;;;;;;;;;;;22.60;47.50;;;;;;5116352;28;20362;-81
2020/12/22 10:52:11;;;;;;;;;;;22.50;45.30;;;;;;5115538;28;19912;-81
2020/12/22 10:54:38;;;;;;;;;;;22.50;45.90;;;;;;5112750;28;19916;-79
2020/12/22 10:57:05;;;;;;;;;;;22.50;46.60;;;;;;5096591;28;19942;-81
2020/12/22 10:59:31;;;;;;;;;;;22.40;45.00;;;;;;5114428;28;19961;-79
2020/12/22 11:01:58;;;;;;;;;;;22.40;44.10;;;;;;5114495;28;19923;-81
2020/12/22 11:04:25;;;;;;;;;;;22.40;44.50;;;;;;5121233;27;19916;-80
2020/12/22 11:07:08;;;;;;;;;;;22.30;45.60;;;;;;5134616;27;19919;-79
2020/12/22 11:09:35;;;;;;;;;;;22.30;43.10;;;;;;5134711;27;19951;-80
2020/12/22 11:12:02;;;;;;;;;;;22.20;44.60;;;;;;5136049;27;19912;-77
2020/12/22 11:14:28;;;;;;;;;;;22.20;40.40;;;;;;5136426;27;20006;-82
2020/12/22 11:16:55;;;;;;;;;;;22.10;40.70;;;;;;5136108;27;19926;-83
2020/12/22 11:19:22;;;;;;;;;;;22.20;41.70;;;;;;5115640;28;19999;-80
2020/12/22 11:21:51;;;;;;;;;;;22.10;42.90;;;;;;5130653;27;19917;-82
2020/12/22 11:24:18;;;;;;;;;;;22.00;42.00;;;;;;5135334;27;19953;-81
2020/12/22 11:26:44;;;;;;;;;;;21.90;40.40;;;;;;5134837;27;19918;-82
2020/12/22 11:29:11;;;;;;;;;;;21.90;41.00;;;;;;5135965;27;20378;-82
2020/12/22 11:31:38;;;;;;;;;;;21.90;43.20;;;;;;5117814;27;19911;-83
2020/12/22 11:34:04;;;;;;;;;;;21.80;43.80;;;;;;5136137;27;19936;-83
2020/12/22 11:36:31;;;;;;;;;;;21.80;41.70;;;;;;5135928;27;20010;-81
2020/12/22 11:38:58;;;;;;;;;;;21.80;43.00;;;;;;5135846;27;20426;-80
2020/12/22 11:41:24;;;;;;;;;;;21.70;41.10;;;;;;5135752;27;19907;-81
2020/12/22 11:43:51;;;;;;;;;;;21.70;42.00;;;;;;5135954;27;20448;-83
2020/12/22 11:46:18;;;;;;;;;;;21.70;42.50;;;;;;5135846;27;19934;-80
2020/12/22 11:48:44;;;;;;;;;;;21.60;43.00;;;;;;5135758;27;20337;-84
2020/12/22 11:51:14;;;;;;;;;;;21.60;42.30;;;;;;5135392;27;19907;-83
2020/12/22 11:53:42;;;;;;;;;;;21.50;41.60;;;;;;5116201;28;19931;-82
2020/12/22 11:56:09;;;;;;;;;;;21.50;44.30;;;;;;5135366;27;19922;-83
2020/12/22 11:58:36;;;;;;;;;;;21.50;45.10;;;;;;5135712;27;19915;-81
2020/12/22 12:01:02;;;;;;;;;;;21.40;45.80;;;;;;5134585;27;19907;-82
2020/12/22 12:03:29;;;;;;;;;;;21.40;43.10;;;;;;5135292;27;19955;-80
2020/12/22 12:05:56;;;;;;;;;;;21.40;42.70;;;;;;5129914;27;20659;-82
2020/12/22 12:08:22;;;;;;;;;;;21.40;43.70;;;;;;5135005;27;19907;-87
2020/12/22 12:10:49;;;;;;;;;;;21.40;44.30;;;;;;5133192;27;20439;-80
2020/12/22 12:13:16;;;;;;;;;;;21.30;43.90;;;;;;5131058;27;19907;-83
2020/12/22 12:15:43;;;;;;;;;;;21.30;46.50;;;;;;5115554;27;19919;-85
2020/12/22 12:18:09;;;;;;;;;;;21.30;44.00;;;;;;5134449;27;19918;-79
2020/12/22 12:20:36;;;;;;;;;;;21.20;44.40;;;;;;5133563;27;19977;-84
2020/12/22 12:23:03;;;;;;;;;;;21.20;45.40;;;;;;5135238;27;19907;-85
2020/12/22 12:25:29;;;;;;;;;;;21.20;43.80;;;;;;5134687;27;19907;-83
2020/12/22 12:27:56;;;;;;;;;;;21.20;44.50;;;;;;5115074;27;20270;-89
2020/12/22 12:30:23;;;;;;;;;;;21.20;45.70;;;;;;5134596;27;19912;-82
2020/12/22 12:32:50;;;;;;;;;;;21.10;47.20;;;;;;5134103;27;19908;-80
2020/12/22 12:35:16;;;;;;;;;;;21.10;44.70;;;;;;5134865;27;19916;-85
2020/12/22 12:37:43;;;;;;;;;;;21.10;47.10;;;;;;5134585;27;19915;-84
2020/12/22 12:40:09;;;;;;;;;;;21.00;46.30;;;;;;5134150;27;20001;-85
2020/12/22 12:42:37;;;;;;;;;;;21.00;46.20;;;;;;5133522;27;19937;-82
2020/12/22 12:45:03;;;;;;;;;;;21.00;47.10;;;;;;5134759;27;20388;-83
2020/12/22 12:47:30;;;;;;;;;;;21.00;46.60;;;;;;5133610;27;19971;-83
2020/12/22 12:49:57;;;;;;;;;;;20.90;45.70;;;;;;5116092;27;19990;-84
2020/12/22 12:52:25;;;;;;;;;;;20.90;48.70;;;;;;5134201;27;20327;-83
2020/12/22 12:54:52;;;;;;;;;;;20.80;47.60;;;;;;5134361;27;19911;-84
2020/12/22 12:57:18;;;;;;;;;;;20.80;47.90;;;;;;5134375;27;19915;-84
2020/12/22 12:59:46;;;;;;;;;;;20.60;49.40;;;;;;5134103;27;20420;-83
2020/12/22 13:02:13;;;;;;;;;;;20.50;50.10;;;;;;5134751;27;20331;-83
2020/12/22 13:04:39;;;;;;;;;;;20.40;49.40;;;;;;5134356;27;20297;-84
2020/12/22 13:07:09;;;;;;;;;;;20.40;50.10;;;;;;5131751;27;20197;-84
2020/12/22 13:09:36;;;;;;;;;;;20.30;50.40;;;;;;5134646;27;19968;-83
2020/12/22 13:12:02;;;;;;;;;;;20.30;50.50;;;;;;5115478;27;20309;-84
2020/12/22 13:14:29;;;;;;;;;;;20.20;51.40;;;;;;5114135;28;20251;-84
2020/12/22 13:16:56;;;;;;;;;;;20.20;51.70;;;;;;5113871;28;19916;-85
2020/12/22 13:19:22;;;;;;;;;;;20.20;53.10;;;;;;5119644;27;19916;-83
2020/12/22 13:21:49;;;;;;;;;;;20.20;53.30;;;;;;5113556;28;20385;-82
2020/12/22 13:24:16;;;;;;;;;;;20.10;51.30;;;;;;5114614;27;20358;-84
2020/12/22 13:26:43;;;;;;;;;;;20.10;50.90;;;;;;5116156;27;20278;-85
2020/12/22 13:29:10;;;;;;;;;;;20.10;51.40;;;;;;5116054;27;19914;-84
2020/12/22 13:31:37;;;;;;;;;;;20.10;51.90;;;;;;5120211;28;19949;-83
2020/12/22 13:34:04;;;;;;;;;;;20.10;51.20;;;;;;5134344;27;20056;-84
2020/12/22 13:36:31;;;;;;;;;;;20.00;51.30;;;;;;5126634;28;19926;-83
2020/12/22 13:38:57;;;;;;;;;;;20.00;51.40;;;;;;5126571;28;20278;-83
2020/12/22 13:41:24;;;;;;;;;;;20.00;51.60;;;;;;5133872;27;19911;-82
2020/12/22 13:43:51;;;;;;;;;;;20.00;52.10;;;;;;5119821;27;19916;-84
2020/12/22 13:46:18;;;;;;;;;;;20.00;52.40;;;;;;5126832;28;19923;-83
2020/12/22 13:48:45;;;;;;;;;;;19.90;53.20;;;;;;5127035;27;19915;-83
2020/12/22 13:51:14;;;;;;;;;;;19.90;55.00;;;;;;5113232;28;19911;-83
2020/12/22 13:53:41;;;;;;;;;;;19.90;52.70;;;;;;5112162;28;19936;-84
2020/12/22 13:56:08;;;;;;;;;;;19.80;53.80;;;;;;5113415;28;19950;-83
2020/12/22 13:58:35;;;;;;;;;;;19.70;53.60;;;;;;5114561;28;19916;-83
2020/12/22 14:01:02;;;;;;;;;;;19.70;53.10;;;;;;5113397;28;20362;-84
2020/12/22 14:03:28;;;;;;;;;;;19.70;53.60;;;;;;5113236;28;19911;-82
2020/12/22 14:05:55;;;;;;;;;;;19.70;54.10;;;;;;5112771;28;19966;-83
2020/12/22 14:08:22;;;;;;;;;;;19.70;53.80;;;;;;5112900;28;19912;-84
2020/12/22 14:10:51;;;;;;;;;;;19.70;54.30;;;;;;5113183;28;19908;-83
2020/12/22 14:13:18;;;;;;;;;;;19.60;53.30;;;;;;5094627;28;20364;-83
2020/12/22 14:15:44;;;;;;;;;;;19.60;54.40;;;;;;5112927;28;19915;-85
2020/12/22 14:18:11;;;;;;;;;;;19.60;54.10;;;;;;5112780;28;19978;-83
2020/12/22 14:20:38;;;;;;;;;;;19.60;55.50;;;;;;5113167;28;20358;-84